Dustin, OK

11:47 PM CDT on September 19, 2014 (GMT -0500)
Horntown OK | Change Station
CLOSE
Current Station
Personal Weather Station
Location: Holdenville, OK
Elevation: 827 ft
Nearby Weather Stations
4.0 Earthquake: Medford, Oklahoma (1 day ago)  

Elev 827 ft 35.08 °N, 96.26 °W | Updated 3 minutes ago

Clear
Clear
69.4 °F
Feels Like 69.4 °F
N
0.0
Wind Variable Wind from East

Today
High -- | Low -- °F
--% Chance of Precip.
Yesterday
High -- | Low -- °F
Precip. -- in
7:10 AM 7:25 PM
Waning Crescent, 14% visible
Pressure 29.97 in
Visibility 9.0 miles
Clouds Clear
Dew Point 69 °F
Humidity 98%
Rainfall 0.00 in
Snow Depth Not available.
UV 0 out of 12
Pollen 9.70 out of 12
Air Quality Not available.
Flu Activity Not available.
METAR KMLC 200353Z AUTO 13004KT 9SM CLR 22/21 A2999 RMK AO2 SLP147 T02220206

More Conditions Fewer Conditions

Pressure 29.97 in
Visibility 9.0 miles
Clouds Clear
Dew Point 69 °F
Humidity 98%
Rainfall 0.00 in
Snow Depth Not available.
UV 0 out of 12
Pollen 9.70 out of 12
Air Quality Not available.
Flu Activity Not available.
METAR KMLC 200353Z AUTO 13004KT 9SM CLR 22/21 A2999 RMK AO2 SLP147 T02220206

More Conditions Fewer Conditions

10-Day Weather Forecast

Almanac

Astronomy

Sep. 19, 2014 Rise Set
Actual Time 7:10 AM CDT 7:25 PM CDT
Civil Twilight 6:44 AM CDT 7:50 PM CDT
Nautical Twilight 6:14 AM CDT 8:20 PM CDT
Astronomical Twilight 5:44 AM CDT 8:50 PM CDT
Moon 3:03 AM CDT (9/19) 4:48 PM CDT (9/19)
Length of Visible Light 13h 06m
Length of Day
12h 15m
Tomorrow will be 2m 11s shorter.
Waning Crescent, 14% of the Moon is Illuminated
Sep 20
Waning Crescent
Sep 24
New
Oct 1
First Quarter
Oct 8
Full
Oct 15
Last Quarter

Yesterday's Extremes

State Highs State Lows

Community

WunderPhotos

Upload Photos

1,754,777 photos uploaded!

WunderBlogs® & News

Nearby

Snow Depth

Station Depth Elevation
No new snow has been reported.

Earthquake Activity

City Distance Mag. Time & Date
Luther, Oklahoma 65 miles 2.7 4:47 PM CDT
2014-09-19
Guthrie, Oklahoma 86 miles 3.9 12:23 PM CDT
2014-09-19
Jones, Oklahoma 72 miles 2.8 1:13 AM CDT
2014-09-19
Perry, Oklahoma 94 miles 3.3 12:08 AM CDT
2014-09-19
Minimum magnitude displayed is 2.5.

Coastal Water Temperatures

Place Temperature
No Stations Reporting

Nearby Weather Stations